createdAt,value
2019-02-17T00:00:20.831Z,4.29
2019-02-17T00:01:20.666Z,4.32
2019-02-17T00:03:12.453Z,4.74
2019-02-17T00:04:12.369Z,4.84
2019-02-17T00:06:04.196Z,5.01
2019-02-17T00:07:04.092Z,5.06
2019-02-17T00:08:56.901Z,5.02
2019-02-17T00:09:56.815Z,5.06
2019-02-17T00:11:48.584Z,5.05
2019-02-17T00:12:48.500Z,5.09
2019-02-17T00:14:41.278Z,4.91
2019-02-17T00:15:41.195Z,4.90
2019-02-17T00:17:33.971Z,4.88
2019-02-17T00:18:33.931Z,4.88
2019-02-17T00:20:26.655Z,5.04
2019-02-17T00:21:26.579Z,5.04
2019-02-17T00:23:18.446Z,5.06
2019-02-17T00:24:18.293Z,4.91
2019-02-17T00:26:10.042Z,4.61
2019-02-17T00:27:09.967Z,4.61
2019-02-17T00:29:02.768Z,4.59
2019-02-17T00:30:02.677Z,4.59
2019-02-17T00:31:55.434Z,4.61
2019-02-17T00:32:55.376Z,4.44
2019-02-17T00:34:48.200Z,4.32
2019-02-17T00:35:48.052Z,4.24
2019-02-17T00:37:40.869Z,4.18
2019-02-17T00:38:40.727Z,4.21
2019-02-17T00:40:32.711Z,4.11
2019-02-17T00:41:32.624Z,4.20
2019-02-17T00:43:25.405Z,4.21
2019-02-17T00:44:25.326Z,4.24
2019-02-17T00:46:18.087Z,4.20
2019-02-17T00:47:18.012Z,4.25
2019-02-17T00:49:10.786Z,4.18
2019-02-17T00:50:10.726Z,4.11
2019-02-17T00:52:03.462Z,4.24
2019-02-17T00:53:03.386Z,4.17
2019-02-17T00:54:56.162Z,4.46
2019-02-17T00:55:56.074Z,4.38
2019-02-17T00:57:48.812Z,4.29
2019-02-17T00:58:48.784Z,4.24
2019-02-17T01:00:40.510Z,4.18
2019-02-17T01:01:40.435Z,4.17
2019-02-17T01:03:33.185Z,4.31
2019-02-17T01:04:33.122Z,4.24
2019-02-17T01:06:25.950Z,4.18
2019-02-17T01:07:25.865Z,4.18
2019-02-17T01:09:18.648Z,4.07
2019-02-17T01:10:18.561Z,4.06
2019-02-17T01:12:11.299Z,4.02
2019-02-17T01:13:11.241Z,3.88
2019-02-17T01:15:04.085Z,3.99
2019-02-17T01:16:03.916Z,4.08
2019-02-17T01:17:56.665Z,4.17
2019-02-17T01:18:56.588Z,4.24
2019-02-17T01:20:48.492Z,4.08
2019-02-17T01:21:48.379Z,4.11
2019-02-17T01:23:41.141Z,4.00
2019-02-17T01:24:41.089Z,3.95
2019-02-17T01:26:33.855Z,3.88
2019-02-17T01:27:33.775Z,3.89
2019-02-17T01:29:25.547Z,3.88
2019-02-17T01:30:25.478Z,3.88
2019-02-17T01:32:17.292Z,3.89
2019-02-17T01:33:17.224Z,3.89
2019-02-17T01:35:09.083Z,3.78
2019-02-17T01:36:08.997Z,3.88
2019-02-17T01:38:00.758Z,3.86
2019-02-17T01:39:00.676Z,3.82
2019-02-17T01:40:52.435Z,3.84
2019-02-17T01:41:52.347Z,3.71
2019-02-17T01:43:44.099Z,3.64
2019-02-17T01:44:44.030Z,3.68
2019-02-17T01:46:35.811Z,3.49
2019-02-17T01:47:35.703Z,3.46
2019-02-17T01:49:27.492Z,3.39
2019-02-17T01:50:27.422Z,3.30
2019-02-17T01:52:19.185Z,3.42
2019-02-17T01:53:19.146Z,3.42
2019-02-17T01:56:56.373Z,3.44
2019-02-17T01:57:56.296Z,3.56
2019-02-17T01:59:49.057Z,3.50
2019-02-17T02:00:48.960Z,3.60
2019-02-17T02:02:41.801Z,3.57
2019-02-17T02:03:41.664Z,3.63
2019-02-17T02:05:33.540Z,3.74
2019-02-17T02:06:33.409Z,3.84
2019-02-17T02:08:25.251Z,3.64
2019-02-17T02:09:25.228Z,3.62
2019-02-17T02:11:17.082Z,3.70
2019-02-17T02:12:16.998Z,3.60
2019-02-17T02:14:08.876Z,3.80
2019-02-17T02:15:08.789Z,3.74
2019-02-17T02:17:00.589Z,3.77
2019-02-17T02:18:00.476Z,3.78
2019-02-17T02:19:52.224Z,3.77
2019-02-17T02:20:52.143Z,3.78
2019-02-17T02:22:43.917Z,3.80
2019-02-17T02:23:43.841Z,3.80
2019-02-17T02:25:35.746Z,3.84
2019-02-17T02:26:35.676Z,3.80
2019-02-17T02:28:27.407Z,3.80
2019-02-17T02:29:27.322Z,3.74
2019-02-17T02:31:20.117Z,3.71
2019-02-17T02:32:20.043Z,3.84
2019-02-17T02:34:12.851Z,3.75
2019-02-17T02:35:12.780Z,3.72
2019-02-17T02:37:06.562Z,3.74
2019-02-17T02:38:06.311Z,3.78
2019-02-17T02:39:58.075Z,3.67
2019-02-17T02:40:58.036Z,3.68
2019-02-17T02:42:49.879Z,3.86
2019-02-17T02:43:49.778Z,3.82
2019-02-17T02:45:42.592Z,3.80
2019-02-17T02:46:42.511Z,3.75
2019-02-17T02:48:35.288Z,3.75
2019-02-17T02:49:35.207Z,3.82
2019-02-17T02:51:26.959Z,3.74
2019-02-17T02:52:26.868Z,3.64
2019-02-17T02:54:18.638Z,3.67
2019-02-17T02:55:18.580Z,3.56
2019-02-17T02:57:10.379Z,3.53
2019-02-17T02:58:10.244Z,3.57
2019-02-17T03:00:03.032Z,3.60
2019-02-17T03:01:02.954Z,3.46
2019-02-17T03:02:54.735Z,3.62
2019-02-17T03:03:54.607Z,3.49
2019-02-17T03:05:46.365Z,3.63
2019-02-17T03:06:46.274Z,3.56
2019-02-17T03:08:38.130Z,3.60
2019-02-17T03:09:38.059Z,3.56
2019-02-17T03:11:29.806Z,3.31
2019-02-17T03:12:29.738Z,3.44
2019-02-17T03:14:21.477Z,3.57
2019-02-17T03:15:21.434Z,3.71
2019-02-17T03:17:13.156Z,3.74
2019-02-17T03:18:13.062Z,3.77
2019-02-17T03:20:04.831Z,3.52
2019-02-17T03:21:04.759Z,3.50
2019-02-17T03:22:56.546Z,3.44
2019-02-17T03:23:56.455Z,3.42
2019-02-17T03:25:48.220Z,3.28
2019-02-17T03:26:48.146Z,3.35
2019-02-17T03:28:40.893Z,3.33
2019-02-17T03:29:40.822Z,3.33
2019-02-17T03:31:32.720Z,3.20
2019-02-17T03:32:32.601Z,3.26
2019-02-17T03:34:24.499Z,3.19
2019-02-17T03:35:24.414Z,3.25
2019-02-17T03:37:16.181Z,3.19
2019-02-17T03:38:16.091Z,3.12
2019-02-17T03:40:08.853Z,3.01
2019-02-17T03:41:08.796Z,3.01
2019-02-17T03:43:01.585Z,2.94
2019-02-17T03:44:01.476Z,2.87
2019-02-17T03:45:53.394Z,2.86
2019-02-17T03:46:53.311Z,2.83
2019-02-17T03:48:46.087Z,2.83
2019-02-17T03:49:45.995Z,2.86
2019-02-17T03:51:37.802Z,2.77
2019-02-17T03:52:37.725Z,2.74
2019-02-17T03:54:30.764Z,2.74
2019-02-17T03:55:30.454Z,2.61
2019-02-17T03:57:23.221Z,2.76
2019-02-17T03:58:23.141Z,2.74
2019-02-17T04:00:17.346Z,2.71
2019-02-17T04:01:15.821Z,2.74
2019-02-17T04:03:07.713Z,2.76
2019-02-17T04:04:07.739Z,2.63
2019-02-17T04:05:59.439Z,2.62
2019-02-17T04:06:59.463Z,2.62
2019-02-17T04:08:51.083Z,2.59
2019-02-17T04:09:51.058Z,2.56
2019-02-17T04:11:42.858Z,2.63
2019-02-17T04:12:42.725Z,2.58
2019-02-17T04:14:34.670Z,2.59
2019-02-17T04:15:34.594Z,2.61
2019-02-17T04:17:26.364Z,2.61
2019-02-17T04:18:26.286Z,2.62
2019-02-17T04:20:18.063Z,2.61
2019-02-17T04:21:17.963Z,2.73
2019-02-17T04:23:09.762Z,2.71
2019-02-17T04:24:09.648Z,2.58
2019-02-17T04:26:01.407Z,2.55
2019-02-17T04:27:01.321Z,2.63
2019-02-17T04:28:54.104Z,2.63
2019-02-17T04:29:54.021Z,2.63
2019-02-17T04:31:46.819Z,2.59
2019-02-17T04:32:46.721Z,2.55
2019-02-17T04:34:39.467Z,2.59
2019-02-17T04:35:39.432Z,2.53
2019-02-17T04:37:31.152Z,2.63
2019-02-17T04:38:31.079Z,2.84
2019-02-17T04:40:22.854Z,2.80
2019-02-17T04:41:22.783Z,2.63
2019-02-17T04:43:15.614Z,2.62
2019-02-17T04:44:15.462Z,2.53
2019-02-17T04:46:08.234Z,2.53
2019-02-17T04:47:08.154Z,2.58
2019-02-17T04:49:01.050Z,2.45
2019-02-17T04:50:00.938Z,2.43
2019-02-17T04:51:53.763Z,2.44
2019-02-17T04:52:53.698Z,2.47
2019-02-17T04:54:46.475Z,2.56
2019-02-17T04:55:46.426Z,2.56
2019-02-17T04:57:38.149Z,2.58
2019-02-17T04:58:38.097Z,2.66
2019-02-17T05:00:39.818Z,2.73
2019-02-17T05:01:30.794Z,2.74
2019-02-17T05:03:23.587Z,2.74
2019-02-17T05:04:23.533Z,2.76
2019-02-17T05:06:16.259Z,2.65
2019-02-17T05:07:16.244Z,2.71
2019-02-17T05:09:08.940Z,2.63
2019-02-17T05:10:08.860Z,2.59
2019-02-17T05:12:01.682Z,2.59
2019-02-17T05:13:01.613Z,2.77
2019-02-17T05:14:54.383Z,2.90
2019-02-17T05:15:54.289Z,2.86
2019-02-17T05:17:47.171Z,2.69
2019-02-17T05:18:46.985Z,2.62
2019-02-17T05:20:39.832Z,2.61
2019-02-17T05:21:39.682Z,2.58
2019-02-17T05:23:31.493Z,2.58
2019-02-17T05:24:31.399Z,2.43
2019-02-17T05:26:24.159Z,2.56
2019-02-17T05:27:24.084Z,2.58
2019-02-17T05:29:16.882Z,2.76
2019-02-17T05:30:16.792Z,2.63
2019-02-17T05:32:09.558Z,2.89
2019-02-17T05:33:09.486Z,3.01
2019-02-17T05:35:01.248Z,3.02
2019-02-17T05:36:01.158Z,3.05
2019-02-17T05:37:54.005Z,3.01
2019-02-17T05:38:53.914Z,3.01
2019-02-17T05:40:46.732Z,2.86
2019-02-17T05:41:46.661Z,2.80
2019-02-17T05:43:39.441Z,2.89
2019-02-17T05:44:39.364Z,2.76
2019-02-17T05:46:32.132Z,2.61
2019-02-17T05:47:32.071Z,2.51
2019-02-17T05:49:24.821Z,2.43
2019-02-17T05:50:24.736Z,2.41
2019-02-17T05:52:17.528Z,2.36
2019-02-17T05:53:17.444Z,2.37
2019-02-17T05:55:09.180Z,2.23
2019-02-17T05:56:09.092Z,2.19
2019-02-17T05:58:01.849Z,2.08
2019-02-17T05:59:01.788Z,2.14
2019-02-17T06:01:03.343Z,1.98
2019-02-17T06:01:54.470Z,1.98
2019-02-17T06:03:47.260Z,1.92
2019-02-17T06:04:47.176Z,1.81
2019-02-17T06:06:39.939Z,1.75
2019-02-17T06:07:39.862Z,1.82
2019-02-17T06:09:32.634Z,1.81
2019-02-17T06:10:32.567Z,1.77
2019-02-17T06:12:25.317Z,1.82
2019-02-17T06:13:25.252Z,1.82
2019-02-17T06:15:17.083Z,1.89
2019-02-17T06:16:16.997Z,2.02
2019-02-17T06:18:09.854Z,2.27
2019-02-17T06:19:09.691Z,2.37
2019-02-17T06:21:01.557Z,2.33
2019-02-17T06:22:01.476Z,2.23
2019-02-17T06:23:54.313Z,2.25
2019-02-17T06:24:54.239Z,2.09
2019-02-17T06:26:46.926Z,2.18
2019-02-17T06:27:46.856Z,2.33
2019-02-17T06:29:39.634Z,2.30
2019-02-17T06:30:39.560Z,2.43
2019-02-17T06:32:32.321Z,2.43
2019-02-17T06:33:32.246Z,2.44
2019-02-17T06:35:25.268Z,2.55
2019-02-17T06:36:25.008Z,2.45
2019-02-17T06:38:17.739Z,2.61
2019-02-17T06:39:17.651Z,2.63
2019-02-17T06:41:10.532Z,2.61
2019-02-17T06:42:10.343Z,2.63
2019-02-17T06:44:04.114Z,2.76
2019-02-17T06:45:03.920Z,2.86
2019-02-17T06:46:56.743Z,2.73
2019-02-17T06:47:56.626Z,2.68
2019-02-17T06:49:49.383Z,2.69
2019-02-17T06:50:49.317Z,2.62
2019-02-17T06:52:42.447Z,2.51
2019-02-17T06:53:41.967Z,2.48
2019-02-17T06:55:34.911Z,2.53
2019-02-17T06:56:34.767Z,2.61
2019-02-17T06:58:27.472Z,2.62
2019-02-17T06:59:27.459Z,2.73
2019-02-17T07:01:24.717Z,2.86
2019-02-17T07:02:19.290Z,2.86
2019-02-17T07:04:12.071Z,2.87
2019-02-17T07:05:11.966Z,3.02
2019-02-17T07:07:03.712Z,2.98
2019-02-17T07:08:03.633Z,2.98
2019-02-17T07:09:56.408Z,2.84
2019-02-17T07:10:56.325Z,2.95
2019-02-17T07:12:49.078Z,3.13
2019-02-17T07:13:49.008Z,3.08
2019-02-17T07:15:41.959Z,3.26
2019-02-17T07:16:41.751Z,3.22
2019-02-17T07:18:34.478Z,3.34
2019-02-17T07:19:34.419Z,3.46
2019-02-17T07:21:27.469Z,3.56
2019-02-17T07:22:27.134Z,3.60
2019-02-17T07:24:18.932Z,3.67
2019-02-17T07:25:29.374Z,3.75
2019-02-17T07:27:11.603Z,3.88
2019-02-17T07:28:11.531Z,3.93
2019-02-17T07:30:04.307Z,4.17
2019-02-17T07:31:04.257Z,4.26
2019-02-17T07:32:57.015Z,4.50
2019-02-17T07:33:56.915Z,4.61
2019-02-17T07:35:49.702Z,4.72
2019-02-17T07:36:49.611Z,4.84
2019-02-17T07:38:42.394Z,5.08
2019-02-17T07:39:42.365Z,5.14
2019-02-17T07:41:35.092Z,5.20
2019-02-17T07:42:35.016Z,5.32
2019-02-17T07:44:27.808Z,5.42
2019-02-17T07:45:27.736Z,5.55
2019-02-17T07:47:20.498Z,5.70
2019-02-17T07:48:20.435Z,5.84
2019-02-17T07:50:12.215Z,6.11
2019-02-17T07:51:12.134Z,6.32
2019-02-17T07:53:03.972Z,6.36
2019-02-17T07:54:03.890Z,6.50
2019-02-17T07:55:56.655Z,6.76
2019-02-17T07:56:56.576Z,6.90
2019-02-17T07:58:49.322Z,6.89
2019-02-17T07:59:49.253Z,6.87
2019-02-17T08:01:45.203Z,6.89
2019-02-17T08:02:42.004Z,6.89
2019-02-17T08:04:34.742Z,7.09
2019-02-17T08:05:34.644Z,7.09
2019-02-17T08:07:27.510Z,7.24
2019-02-17T08:08:27.444Z,7.36
2019-02-17T08:10:19.299Z,7.81
2019-02-17T08:11:19.161Z,7.86
2019-02-17T08:13:12.100Z,8.13
2019-02-17T08:14:11.867Z,8.02
2019-02-17T08:16:04.789Z,8.20
2019-02-17T08:17:04.691Z,8.20
2019-02-17T08:18:57.364Z,8.46
2019-02-17T08:19:57.287Z,8.40
2019-02-17T08:21:50.091Z,8.39
2019-02-17T08:22:50.118Z,8.39
2019-02-17T08:24:41.908Z,8.70
2019-02-17T08:25:41.831Z,8.52
2019-02-17T08:27:34.610Z,8.63
2019-02-17T08:28:34.547Z,8.85
2019-02-17T08:30:27.360Z,9.42
2019-02-17T08:31:27.279Z,9.74
2019-02-17T08:33:20.709Z,10.24
2019-02-17T08:34:19.985Z,10.34
2019-02-17T08:36:11.972Z,10.49
2019-02-17T08:37:11.886Z,10.49
2019-02-17T08:39:04.653Z,11.11
2019-02-17T08:40:04.580Z,11.35
2019-02-17T08:41:57.508Z,11.60
2019-02-17T08:42:57.416Z,11.87
2019-02-17T08:44:50.490Z,12.11
2019-02-17T08:45:50.126Z,12.37
2019-02-17T08:47:42.082Z,12.76
2019-02-17T08:48:41.865Z,12.96
2019-02-17T08:50:34.645Z,13.62
2019-02-17T08:51:34.579Z,13.69
2019-02-17T08:53:27.492Z,14.09
2019-02-17T08:54:27.396Z,14.38
2019-02-17T08:56:20.202Z,14.79
2019-02-17T08:57:20.129Z,14.86
2019-02-17T08:59:12.933Z,15.07
2019-02-17T09:00:12.839Z,15.09
2019-02-17T09:02:06.393Z,15.33
2019-02-17T09:03:05.552Z,15.37
2019-02-17T09:04:58.429Z,15.41
2019-02-17T09:05:58.333Z,15.60
2019-02-17T09:07:51.130Z,15.56
2019-02-17T09:08:51.071Z,15.60
2019-02-17T09:10:43.874Z,15.76
2019-02-17T09:11:43.796Z,15.85
2019-02-17T09:13:36.576Z,15.91
2019-02-17T09:14:36.534Z,16.03
2019-02-17T09:16:29.313Z,15.85
2019-02-17T09:17:29.249Z,15.88
2019-02-17T09:19:22.021Z,15.22
2019-02-17T09:20:21.965Z,15.19
2019-02-17T09:22:14.792Z,14.79
2019-02-17T09:23:14.685Z,14.87
2019-02-17T09:25:07.490Z,15.00
2019-02-17T09:26:07.402Z,15.34
2019-02-17T09:28:00.216Z,15.20
2019-02-17T09:29:00.136Z,15.44
2019-02-17T09:30:52.949Z,15.91
2019-02-17T09:31:52.861Z,16.10
2019-02-17T09:33:45.674Z,16.75
2019-02-17T09:34:45.603Z,16.99
2019-02-17T09:36:38.522Z,16.03
2019-02-17T09:37:38.318Z,15.98
2019-02-17T09:39:31.101Z,15.62
2019-02-17T09:40:31.040Z,15.13
2019-02-17T09:42:23.849Z,14.49
2019-02-17T09:43:23.776Z,14.75
2019-02-17T09:45:15.575Z,14.21
2019-02-17T09:46:15.509Z,14.48
2019-02-17T09:48:08.320Z,15.41
2019-02-17T09:49:08.236Z,15.73
2019-02-17T09:51:00.127Z,16.48
2019-02-17T09:52:00.004Z,16.77
2019-02-17T09:53:52.806Z,17.15
2019-02-17T09:54:52.715Z,17.46
2019-02-17T09:56:45.506Z,17.57
2019-02-17T09:57:45.442Z,17.00
2019-02-17T09:59:38.223Z,17.65
2019-02-17T10:00:38.155Z,17.63
2019-02-17T10:02:30.968Z,17.92
2019-02-17T10:03:30.894Z,17.77
2019-02-17T10:05:23.672Z,17.71
2019-02-17T10:06:23.610Z,18.02
2019-02-17T10:08:16.412Z,18.53
2019-02-17T10:09:16.352Z,18.31
2019-02-17T10:11:09.189Z,18.69
2019-02-17T10:12:09.071Z,18.91
2019-02-17T10:14:00.975Z,19.49
2019-02-17T10:15:00.915Z,19.67
2019-02-17T10:16:53.717Z,19.39
2019-02-17T10:17:53.651Z,18.89
2019-02-17T10:19:46.433Z,17.66
2019-02-17T10:20:46.467Z,17.27
2019-02-17T10:22:39.186Z,17.22
2019-02-17T10:23:39.117Z,17.21
2019-02-17T10:25:31.920Z,17.57
2019-02-17T10:26:31.907Z,17.86
2019-02-17T10:28:24.651Z,18.25
2019-02-17T10:29:24.573Z,18.28
2019-02-17T10:31:17.427Z,18.65
2019-02-17T10:32:17.390Z,18.54
2019-02-17T10:34:10.121Z,18.64
2019-02-17T10:35:10.064Z,18.84
2019-02-17T10:37:02.842Z,18.51
2019-02-17T10:38:02.770Z,18.42
2019-02-17T10:39:55.691Z,18.16
2019-02-17T10:40:55.486Z,18.19
2019-02-17T10:42:47.476Z,18.02
2019-02-17T10:43:47.406Z,18.21
2019-02-17T10:45:40.296Z,18.59
2019-02-17T10:46:40.141Z,18.75
2019-02-17T10:48:32.945Z,18.69
2019-02-17T10:49:32.889Z,18.99
2019-02-17T10:51:26.561Z,19.49
2019-02-17T10:52:25.603Z,19.23
2019-02-17T10:54:18.398Z,18.83
2019-02-17T10:55:18.326Z,18.87
2019-02-17T10:57:11.112Z,18.09
2019-02-17T10:58:11.071Z,17.71
2019-02-17T11:00:02.839Z,17.68
2019-02-17T11:01:02.771Z,17.39
2019-02-17T11:02:55.594Z,17.92
2019-02-17T11:03:55.517Z,18.09
2019-02-17T11:05:48.332Z,18.38
2019-02-17T11:06:48.263Z,18.05
2019-02-17T11:08:41.047Z,18.04
2019-02-17T11:09:41.005Z,17.73
2019-02-17T11:11:33.806Z,17.10
2019-02-17T11:12:33.718Z,16.87
2019-02-17T11:14:26.506Z,15.74
2019-02-17T11:15:26.456Z,15.66
2019-02-17T11:17:19.247Z,15.44
2019-02-17T11:18:19.193Z,15.52
2019-02-17T11:20:12.058Z,15.43
2019-02-17T11:21:12.065Z,15.34
2019-02-17T11:23:05.026Z,15.11
2019-02-17T11:24:04.863Z,14.98
2019-02-17T11:25:56.896Z,14.74
2019-02-17T11:26:56.856Z,14.36
2019-02-17T11:28:49.661Z,14.12
2019-02-17T11:29:49.481Z,14.19
2019-02-17T11:31:42.307Z,14.44
2019-02-17T11:32:42.205Z,14.48
2019-02-17T11:34:34.087Z,14.42
2019-02-17T11:35:33.965Z,14.44
2019-02-17T11:37:26.978Z,14.48
2019-02-17T11:38:26.776Z,14.42
2019-02-17T11:40:19.758Z,14.39
2019-02-17T11:41:19.605Z,14.41
2019-02-17T11:43:11.513Z,14.46
2019-02-17T11:44:11.466Z,14.44
2019-02-17T11:46:03.382Z,14.39
2019-02-17T11:47:03.309Z,14.48
2019-02-17T11:48:55.083Z,14.23
2019-02-17T11:49:54.978Z,14.04
2019-02-17T11:51:46.771Z,14.26
2019-02-17T11:52:46.706Z,14.21
2019-02-17T11:54:38.572Z,14.08
2019-02-17T11:55:38.423Z,14.04
2019-02-17T11:57:30.552Z,14.01
2019-02-17T11:58:30.265Z,14.02
2019-02-17T12:00:22.020Z,14.06
2019-02-17T12:01:21.961Z,14.02
2019-02-17T12:03:13.792Z,14.04
2019-02-17T12:04:13.721Z,14.11
2019-02-17T12:06:05.496Z,14.12
2019-02-17T12:07:05.482Z,14.08
2019-02-17T12:08:58.355Z,14.16
2019-02-17T12:09:58.146Z,14.02
2019-02-17T12:11:49.938Z,14.04
2019-02-17T12:12:49.854Z,14.04
2019-02-17T12:14:41.616Z,14.11
2019-02-17T12:15:41.536Z,14.16
2019-02-17T12:17:33.401Z,14.05
2019-02-17T12:18:33.338Z,14.06
2019-02-17T12:20:25.256Z,13.73
2019-02-17T12:21:25.206Z,13.83
2019-02-17T12:23:17.029Z,13.99
2019-02-17T12:24:16.951Z,14.13
2019-02-17T12:26:09.767Z,14.08
2019-02-17T12:27:09.730Z,14.04
2019-02-17T12:29:01.495Z,14.30
2019-02-17T12:30:01.409Z,14.12
2019-02-17T12:31:53.170Z,14.13
2019-02-17T12:32:53.110Z,14.04
2019-02-17T12:34:45.005Z,14.09
2019-02-17T12:35:44.931Z,14.02
2019-02-17T12:37:36.729Z,14.05
2019-02-17T12:38:36.604Z,14.05
2019-02-17T12:40:28.493Z,13.84
2019-02-17T12:41:28.365Z,13.80
2019-02-17T12:43:20.170Z,13.99
2019-02-17T12:44:20.085Z,14.02
2019-02-17T12:46:11.925Z,14.02
2019-02-17T12:47:11.841Z,14.04
2019-02-17T12:49:03.658Z,14.05
2019-02-17T12:50:05.079Z,14.08
2019-02-17T12:51:55.489Z,14.17
2019-02-17T12:52:55.424Z,14.12
2019-02-17T12:54:47.222Z,14.11
2019-02-17T12:55:47.096Z,14.29
2019-02-17T12:57:39.022Z,14.26
2019-02-17T12:58:38.934Z,14.12
2019-02-17T13:00:30.755Z,14.20
2019-02-17T13:01:30.666Z,14.26
2019-02-17T13:03:28.567Z,14.38
2019-02-17T13:04:23.400Z,14.31
2019-02-17T13:06:15.169Z,14.38
2019-02-17T13:07:15.120Z,14.46
2019-02-17T13:09:06.978Z,14.54
2019-02-17T13:10:06.848Z,14.59
2019-02-17T13:11:58.614Z,14.52
2019-02-17T13:12:58.518Z,14.49
2019-02-17T13:14:50.333Z,14.61
2019-02-17T13:15:50.317Z,14.63
2019-02-17T13:17:42.040Z,14.49
2019-02-17T13:18:41.962Z,14.52
2019-02-17T13:20:33.748Z,14.49
2019-02-17T13:21:33.638Z,14.34
2019-02-17T13:23:26.764Z,14.12
2019-02-17T13:24:27.596Z,14.13
2019-02-17T13:26:18.130Z,14.09
2019-02-17T13:27:18.058Z,14.24
2019-02-17T13:29:09.847Z,14.21
2019-02-17T13:30:09.784Z,14.16
2019-02-17T13:32:01.725Z,14.19
2019-02-17T13:33:01.646Z,14.20
2019-02-17T13:34:53.471Z,14.04
2019-02-17T13:35:53.388Z,13.98
2019-02-17T13:37:45.201Z,14.05
2019-02-17T13:38:45.105Z,14.01
2019-02-17T13:40:36.896Z,14.11
2019-02-17T13:41:36.830Z,14.17
2019-02-17T13:43:28.609Z,14.20
2019-02-17T13:44:28.524Z,14.23
2019-02-17T13:46:20.364Z,14.13
2019-02-17T13:47:20.224Z,14.23
2019-02-17T13:49:12.078Z,14.26
2019-02-17T13:50:12.118Z,14.17
2019-02-17T13:52:03.758Z,14.06
2019-02-17T13:53:11.296Z,14.06
2019-02-17T13:54:56.459Z,14.13
2019-02-17T13:55:56.402Z,14.21
2019-02-17T13:57:48.177Z,14.30
2019-02-17T13:58:48.141Z,14.30
2019-02-17T14:00:39.887Z,14.44
2019-02-17T14:01:39.807Z,14.46
2019-02-17T14:03:31.606Z,14.45
2019-02-17T14:04:31.528Z,14.39
2019-02-17T14:06:23.439Z,14.53
2019-02-17T14:07:23.287Z,14.26
2019-02-17T14:09:15.099Z,14.12
2019-02-17T14:10:15.039Z,14.19
2019-02-17T14:12:07.802Z,14.20
2019-02-17T14:13:07.732Z,14.20
2019-02-17T14:14:59.705Z,14.27
2019-02-17T14:15:59.547Z,14.19
2019-02-17T14:17:51.335Z,14.19
2019-02-17T14:18:51.252Z,14.20
2019-02-17T14:20:43.052Z,14.16
2019-02-17T14:21:42.950Z,14.08
2019-02-17T14:23:34.809Z,14.04
2019-02-17T14:24:34.745Z,14.12
2019-02-17T14:26:26.611Z,14.08
2019-02-17T14:27:26.458Z,14.17
2019-02-17T14:29:18.306Z,13.99
2019-02-17T14:30:18.208Z,14.12
2019-02-17T14:32:09.999Z,14.05
2019-02-17T14:33:09.945Z,14.20
2019-02-17T14:35:01.728Z,14.17
2019-02-17T14:36:01.650Z,14.06
2019-02-17T14:37:53.410Z,14.20
2019-02-17T14:38:53.356Z,14.16
2019-02-17T14:40:45.204Z,14.06
2019-02-17T14:41:45.119Z,14.06
2019-02-17T14:43:36.949Z,14.02
2019-02-17T14:44:36.876Z,14.04
2019-02-17T14:46:28.643Z,13.93
2019-02-17T14:47:28.629Z,13.96
2019-02-17T14:49:20.412Z,13.99
2019-02-17T14:50:20.300Z,14.04
2019-02-17T14:52:13.085Z,14.01
2019-02-17T14:53:13.019Z,13.84
2019-02-17T14:55:04.994Z,13.83
2019-02-17T14:56:04.912Z,13.83
2019-02-17T14:58:04.991Z,13.84
2019-02-17T14:58:57.655Z,13.88
2019-02-17T15:00:49.502Z,13.84
2019-02-17T15:01:49.461Z,13.83
2019-02-17T15:03:41.231Z,13.81
2019-02-17T15:04:41.203Z,13.83
2019-02-17T15:06:32.929Z,13.79
2019-02-17T15:07:32.912Z,13.80
2019-02-17T15:09:24.651Z,13.68
2019-02-17T15:10:24.597Z,13.81
2019-02-17T15:12:16.540Z,13.75
2019-02-17T15:13:16.470Z,13.75
2019-02-17T15:15:08.299Z,13.63
2019-02-17T15:16:08.210Z,13.68
2019-02-17T15:18:00.070Z,13.63
2019-02-17T15:19:00.000Z,13.59
2019-02-17T15:20:52.820Z,13.50
2019-02-17T15:21:52.770Z,13.59
2019-02-17T15:23:44.548Z,13.55
2019-02-17T15:24:44.432Z,13.65
2019-02-17T15:26:36.202Z,13.61
2019-02-17T15:27:36.131Z,13.51
2019-02-17T15:29:27.930Z,13.50
2019-02-17T15:30:27.855Z,13.39
2019-02-17T15:32:19.573Z,13.39
2019-02-17T15:33:19.512Z,13.35
2019-02-17T15:35:12.272Z,13.36
2019-02-17T15:36:12.190Z,13.32
2019-02-17T15:38:03.996Z,13.35
2019-02-17T15:39:03.903Z,13.31
2019-02-17T15:40:55.684Z,13.31
2019-02-17T15:41:55.591Z,13.19
2019-02-17T15:43:47.486Z,13.09
2019-02-17T15:44:47.415Z,12.92
2019-02-17T15:46:39.335Z,12.91
2019-02-17T15:47:39.135Z,12.94
2019-02-17T15:49:31.922Z,12.87
2019-02-17T15:50:31.840Z,12.80
2019-02-17T15:52:24.630Z,12.71
2019-02-17T15:53:24.569Z,12.63
2019-02-17T15:55:16.414Z,12.56
2019-02-17T15:56:16.333Z,12.55
2019-02-17T15:58:09.120Z,12.55
2019-02-17T15:59:09.085Z,12.58
2019-02-17T16:01:01.063Z,12.58
2019-02-17T16:02:00.960Z,12.52
2019-02-17T16:03:52.732Z,12.48
2019-02-17T16:04:52.690Z,12.44
2019-02-17T16:06:44.445Z,12.46
2019-02-17T16:07:44.366Z,12.36
2019-02-17T16:09:37.128Z,12.18
2019-02-17T16:10:37.089Z,12.19
2019-02-17T16:12:29.861Z,12.12
2019-02-17T16:13:29.779Z,12.05
2019-02-17T16:15:22.578Z,11.88
2019-02-17T16:16:22.510Z,11.85
2019-02-17T16:18:14.358Z,11.66
2019-02-17T16:19:14.285Z,11.78
2019-02-17T16:21:06.141Z,11.69
2019-02-17T16:22:06.062Z,11.59
2019-02-17T16:23:58.074Z,11.57
2019-02-17T16:24:57.787Z,11.57
2019-02-17T16:26:49.556Z,11.46
2019-02-17T16:27:49.507Z,11.45
2019-02-17T16:29:41.409Z,11.33
2019-02-17T16:30:41.321Z,11.36
2019-02-17T16:32:32.995Z,11.33
2019-02-17T16:33:32.934Z,11.35
2019-02-17T16:35:24.718Z,11.38
2019-02-17T16:36:24.627Z,11.30
2019-02-17T16:38:16.504Z,11.17
2019-02-17T16:39:16.437Z,11.17
2019-02-17T16:41:09.275Z,11.02
2019-02-17T16:42:09.143Z,10.98
2019-02-17T16:44:01.901Z,10.91
2019-02-17T16:45:01.825Z,10.95
2019-02-17T16:46:54.593Z,10.78
2019-02-17T16:47:54.513Z,10.65
2019-02-17T16:49:47.275Z,10.62
2019-02-17T16:50:47.246Z,10.42
2019-02-17T16:52:40.023Z,10.46
2019-02-17T16:53:39.933Z,10.44
2019-02-17T16:55:31.901Z,10.43
2019-02-17T16:56:31.785Z,10.52
2019-02-17T16:58:24.590Z,10.44
2019-02-17T16:59:24.489Z,10.46
2019-02-17T17:01:17.360Z,10.26
2019-02-17T17:02:17.179Z,10.31
2019-02-17T17:04:08.988Z,10.20
2019-02-17T17:05:08.991Z,10.16
2019-02-17T17:07:01.112Z,10.11
2019-02-17T17:08:00.759Z,10.09
2019-02-17T17:09:53.545Z,10.02
2019-02-17T17:10:53.449Z,10.01
2019-02-17T17:12:46.263Z,9.92
2019-02-17T17:13:46.163Z,9.93
2019-02-17T17:15:37.926Z,10.02
2019-02-17T17:16:37.856Z,9.83
2019-02-17T17:18:30.639Z,9.85
2019-02-17T17:19:30.557Z,9.68
2019-02-17T17:21:23.366Z,9.60
2019-02-17T17:22:23.265Z,9.60
2019-02-17T17:24:15.091Z,9.42
2019-02-17T17:25:15.025Z,9.48
2019-02-17T17:27:07.867Z,9.44
2019-02-17T17:28:07.750Z,9.38
2019-02-17T17:30:00.597Z,9.34
2019-02-17T17:31:00.461Z,9.44
2019-02-17T17:32:52.209Z,9.42
2019-02-17T17:33:52.110Z,9.44
2019-02-17T17:35:43.923Z,9.52
2019-02-17T17:36:43.854Z,9.49
2019-02-17T17:38:36.633Z,9.50
2019-02-17T17:39:36.555Z,9.53
2019-02-17T17:41:29.327Z,9.45
2019-02-17T17:42:29.309Z,9.35
2019-02-17T17:44:21.013Z,9.34
2019-02-17T17:45:20.940Z,9.34
2019-02-17T17:47:13.709Z,9.16
2019-02-17T17:48:13.633Z,9.15
2019-02-17T17:50:06.402Z,9.04
2019-02-17T17:51:06.365Z,8.96
2019-02-17T17:52:59.121Z,8.93
2019-02-17T17:53:59.049Z,8.86
2019-02-17T17:55:50.789Z,8.76
2019-02-17T17:56:50.727Z,8.82
2019-02-17T17:58:42.719Z,8.73
2019-02-17T17:59:42.603Z,8.71
2019-02-17T18:01:35.408Z,8.58
2019-02-17T18:02:35.317Z,8.47
2019-02-17T18:04:27.186Z,8.43
2019-02-17T18:05:27.122Z,8.42
2019-02-17T18:07:18.882Z,8.43
2019-02-17T18:08:18.809Z,8.63
2019-02-17T18:10:11.557Z,8.58
2019-02-17T18:11:11.491Z,8.64
2019-02-17T18:13:04.340Z,8.70
2019-02-17T18:14:04.251Z,8.64
2019-02-17T18:15:56.183Z,8.45
2019-02-17T18:16:56.100Z,8.49
2019-02-17T18:18:48.932Z,8.49
2019-02-17T18:19:48.866Z,8.42
2019-02-17T18:21:40.855Z,8.32
2019-02-17T18:22:40.808Z,8.28
2019-02-17T18:24:32.693Z,8.18
2019-02-17T18:25:32.652Z,8.12
2019-02-17T18:27:24.659Z,8.20
2019-02-17T18:28:24.583Z,8.22
2019-02-17T18:30:16.841Z,8.31
2019-02-17T18:31:16.441Z,8.31
2019-02-17T18:33:09.368Z,8.20
2019-02-17T18:34:09.167Z,8.18
2019-02-17T18:36:00.900Z,8.07
2019-02-17T18:37:00.827Z,8.06
2019-02-17T18:38:53.647Z,7.96
2019-02-17T18:39:53.555Z,8.03
2019-02-17T18:41:46.294Z,8.02
2019-02-17T18:42:46.232Z,8.06
2019-02-17T18:44:38.024Z,8.09
2019-02-17T18:45:37.924Z,8.06
2019-02-17T18:47:30.689Z,7.94
2019-02-17T18:48:30.641Z,7.85
2019-02-17T18:50:23.508Z,7.81